createdAt,value
2019-01-06T00:02:59.914Z,98242.13
2019-01-06T00:05:50.062Z,98226.70
2019-01-06T00:08:58.435Z,98258.50
2019-01-06T00:11:58.069Z,98246.38
2019-01-06T00:14:40.184Z,98274.20
2019-01-06T00:17:36.349Z,98271.70
2019-01-06T00:20:28.843Z,98285.55
2019-01-06T00:23:20.749Z,98286.73
2019-01-06T00:26:14.105Z,98271.59
2019-01-06T00:29:07.079Z,98275.75
2019-01-06T00:31:56.341Z,98280.72
2019-01-06T00:34:47.057Z,98272.59
2019-01-06T00:37:46.524Z,98277.58
2019-01-06T00:40:46.644Z,98274.95
2019-01-06T00:43:32.368Z,98295.42
2019-01-06T00:46:21.320Z,98283.98
2019-01-06T00:49:26.912Z,98291.63
2019-01-06T00:52:20.138Z,98297.94
2019-01-06T00:55:18.497Z,98274.14
2019-01-06T00:58:08.642Z,98301.27
2019-01-06T01:01:19.676Z,98295.95
2019-01-06T01:04:09.711Z,98310.41
2019-01-06T01:06:58.727Z,98305.76
2019-01-06T01:09:51.903Z,98319.38
2019-01-06T01:13:00.827Z,98296.45
2019-01-06T01:15:49.310Z,98302.76
2019-01-06T01:18:52.830Z,98294.92
2019-01-06T01:21:55.266Z,98294.44
2019-01-06T01:24:54.766Z,98309.75
2019-01-06T01:28:02.743Z,98287.29
2019-01-06T01:30:53.462Z,98292.95
2019-01-06T01:33:38.774Z,98300.25
2019-01-06T01:36:31.614Z,98297.92
2019-01-06T01:39:31.284Z,98299.75
2019-01-06T01:42:27.398Z,98297.94
2019-01-06T01:45:16.709Z,98305.27
2019-01-06T01:48:06.706Z,98296.64
2019-01-06T01:51:02.793Z,98316.41
2019-01-06T01:53:53.976Z,98308.92
2019-01-06T01:57:02.446Z,98310.45
2019-01-06T01:59:55.005Z,98297.79
2019-01-06T02:02:43.682Z,98288.67
2019-01-06T02:05:42.649Z,98297.98
2019-01-06T02:08:37.690Z,98299.16
2019-01-06T02:11:15.933Z,98301.48
2019-01-06T02:13:59.668Z,98301.18
2019-01-06T02:16:47.106Z,98299.16
2019-01-06T02:19:45.132Z,98308.97
2019-01-06T02:22:42.357Z,98302.32
2019-01-06T02:25:41.537Z,98307.98
2019-01-06T02:28:31.993Z,98314.30
2019-01-06T02:31:20.977Z,98327.11
2019-01-06T02:34:20.479Z,98330.60
2019-01-06T02:37:10.862Z,98332.58
2019-01-06T02:39:59.777Z,98318.81
2019-01-06T02:42:49.391Z,98318.29
2019-01-06T02:45:48.445Z,98315.47
2019-01-06T02:48:38.508Z,98318.81
2019-01-06T02:51:27.391Z,98314.83
2019-01-06T02:54:24.244Z,98314.15
2019-01-06T02:57:13.352Z,98323.31
2019-01-06T03:00:03.635Z,98314.19
2019-01-06T03:03:12.003Z,98309.36
2019-01-06T03:06:18.004Z,98295.72
2019-01-06T03:09:06.770Z,98290.59
2019-01-06T03:12:12.048Z,98303.40
2019-01-06T03:15:06.189Z,98323.01
2019-01-06T03:17:59.508Z,98308.72
2019-01-06T03:21:01.905Z,98343.48
2019-01-06T03:23:46.032Z,98334.67
2019-01-06T03:26:36.483Z,98341.01
2019-01-06T03:29:36.073Z,98336.53
2019-01-06T03:32:18.310Z,98336.53
2019-01-06T03:35:03.406Z,98315.41
2019-01-06T03:37:52.410Z,98358.45
2019-01-06T03:40:51.536Z,98361.48
2019-01-06T03:43:50.752Z,98350.01
2019-01-06T03:46:40.795Z,98335.05
2019-01-06T03:49:36.737Z,98299.67
2019-01-06T03:52:26.832Z,98342.53
2019-01-06T03:55:15.674Z,98339.37
2019-01-06T03:58:12.714Z,98328.09
2019-01-06T04:01:03.169Z,98306.63
2019-01-06T04:03:56.399Z,98359.16
2019-01-06T04:06:46.923Z,98345.03
2019-01-06T04:09:35.612Z,98355.32
2019-01-06T04:12:31.361Z,98350.19
2019-01-06T04:15:13.191Z,98363.98
2019-01-06T04:18:06.214Z,98359.83
2019-01-06T04:20:56.396Z,98364.00
2019-01-06T04:23:48.217Z,98358.50
2019-01-06T04:26:38.932Z,98363.66
2019-01-06T04:29:32.134Z,98370.47
2019-01-06T04:32:25.226Z,98367.98
2019-01-06T04:35:30.542Z,98381.12
2019-01-06T04:38:22.728Z,98378.80
2019-01-06T04:41:25.067Z,98390.08
2019-01-06T04:44:30.757Z,98385.45
2019-01-06T04:47:27.405Z,98390.92
2019-01-06T04:50:16.561Z,98389.09
2019-01-06T04:53:07.230Z,98390.27
2019-01-06T04:56:12.601Z,98385.60
2019-01-06T04:59:06.599Z,98370.33
2019-01-06T05:01:55.738Z,98397.40
2019-01-06T05:04:48.906Z,98381.29
2019-01-06T05:07:37.228Z,98396.41
2019-01-06T05:10:27.481Z,98386.95
2019-01-06T05:13:34.669Z,98403.23
2019-01-06T05:16:23.800Z,98400.57
2019-01-06T05:19:14.430Z,98410.36
2019-01-06T05:22:03.302Z,98413.53
2019-01-06T05:24:42.620Z,98418.36
2019-01-06T05:27:40.705Z,98419.16
2019-01-06T05:30:48.933Z,98435.12
2019-01-06T05:33:42.318Z,98440.45
2019-01-06T05:36:47.435Z,98414.20
2019-01-06T05:39:46.500Z,98452.89
2019-01-06T05:42:35.257Z,98428.13
2019-01-06T05:45:28.145Z,98442.92
2019-01-06T05:48:17.115Z,98429.13
2019-01-06T05:51:16.139Z,98438.25
2019-01-06T05:54:04.898Z,98457.51
2019-01-06T05:57:04.374Z,98441.57
2019-01-06T05:59:53.792Z,98468.95
2019-01-06T06:02:44.498Z,98435.23
2019-01-06T06:05:39.099Z,98460.48
2019-01-06T06:08:27.859Z,98465.44
2019-01-06T06:11:16.770Z,98478.06
2019-01-06T06:14:06.260Z,98456.97
2019-01-06T06:16:46.030Z,98466.75
2019-01-06T06:19:34.532Z,98467.08
2019-01-06T06:22:27.757Z,98475.20
2019-01-06T06:25:16.634Z,98483.82
2019-01-06T06:28:09.649Z,98483.82
2019-01-06T06:30:52.899Z,98504.05
2019-01-06T06:33:41.999Z,98503.22
2019-01-06T06:36:37.696Z,98511.15
2019-01-06T06:39:27.795Z,98516.28
2019-01-06T06:42:23.714Z,98514.93
2019-01-06T06:45:22.559Z,98502.95
2019-01-06T06:48:15.813Z,98526.34
2019-01-06T06:51:25.309Z,98542.90
2019-01-06T06:54:14.536Z,98546.22
2019-01-06T06:57:41.448Z,98545.48
2019-01-06T07:00:59.034Z,98537.65
2019-01-06T07:03:57.449Z,98561.47
2019-01-06T07:07:03.583Z,98559.13
2019-01-06T07:09:58.433Z,98549.72
2019-01-06T07:12:58.674Z,98560.46
2019-01-06T07:15:48.875Z,98564.26
2019-01-06T07:18:50.882Z,98579.94
2019-01-06T07:21:47.852Z,98580.83
2019-01-06T07:24:36.816Z,98566.33
2019-01-06T07:27:27.065Z,98585.25
2019-01-06T07:30:18.123Z,98597.41
2019-01-06T07:33:04.394Z,98592.77
2019-01-06T07:36:00.449Z,98590.64
2019-01-06T07:38:46.784Z,98582.03
2019-01-06T07:41:35.634Z,98610.34
2019-01-06T07:44:24.806Z,98592.95
2019-01-06T07:47:17.203Z,98603.16
2019-01-06T07:50:07.347Z,98610.53
2019-01-06T07:53:08.806Z,98598.78
2019-01-06T07:55:58.446Z,98614.09
2019-01-06T07:59:03.512Z,98611.55
2019-01-06T08:01:54.376Z,98623.20
2019-01-06T08:04:44.435Z,98621.83
2019-01-06T08:07:33.243Z,98631.64
2019-01-06T08:10:26.807Z,98624.84
2019-01-06T08:13:15.790Z,98642.38
2019-01-06T08:16:04.206Z,98632.91
2019-01-06T08:18:57.308Z,98633.34
2019-01-06T08:21:47.649Z,98639.13
2019-01-06T08:24:38.006Z,98646.25
2019-01-06T08:27:28.073Z,98649.06
2019-01-06T08:30:24.950Z,98653.90
2019-01-06T08:33:13.793Z,98659.36
2019-01-06T08:36:02.678Z,98668.23
2019-01-06T08:38:53.003Z,98679.25
2019-01-06T08:41:46.140Z,98681.86
2019-01-06T08:44:45.538Z,98687.98
2019-01-06T08:47:41.694Z,98690.42
2019-01-06T08:50:34.823Z,98689.44
2019-01-06T08:53:27.967Z,98688.17
2019-01-06T08:56:21.171Z,98692.33
2019-01-06T08:59:11.197Z,98698.30
2019-01-06T09:02:19.656Z,98699.91
2019-01-06T09:05:08.366Z,98700.80
2019-01-06T09:07:58.283Z,98708.70
2019-01-06T09:10:51.640Z,98704.55
2019-01-06T09:13:47.727Z,98704.25
2019-01-06T09:16:37.037Z,98704.63
2019-01-06T09:19:25.816Z,98712.17
2019-01-06T09:22:15.976Z,98714.80
2019-01-06T09:25:11.324Z,98713.96
2019-01-06T09:28:05.181Z,98711.09
2019-01-06T09:30:59.923Z,98708.72
2019-01-06T09:33:53.723Z,98704.61
2019-01-06T09:37:02.385Z,98714.00
2019-01-06T09:39:53.066Z,98704.87
2019-01-06T09:42:43.067Z,98713.69
2019-01-06T09:45:48.717Z,98701.87
2019-01-06T09:48:37.603Z,98710.41
2019-01-06T09:51:41.111Z,98701.80
2019-01-06T09:54:29.957Z,98714.34
2019-01-06T09:57:18.745Z,98722.63
2019-01-06T10:00:21.417Z,98712.50
2019-01-06T10:03:14.308Z,98716.23
2019-01-06T10:06:10.538Z,98709.85
2019-01-06T10:09:00.596Z,98718.48
2019-01-06T10:11:56.008Z,98711.85
2019-01-06T10:14:45.511Z,98711.02
2019-01-06T10:17:50.917Z,98715.89
2019-01-06T10:20:41.076Z,98724.45
2019-01-06T10:23:43.760Z,98726.73
2019-01-06T10:26:32.758Z,98731.88
2019-01-06T10:29:21.673Z,98739.69
2019-01-06T10:32:13.917Z,98730.88
2019-01-06T10:34:58.657Z,98721.20
2019-01-06T10:37:47.564Z,98727.70
2019-01-06T10:40:54.016Z,98737.65
2019-01-06T10:43:42.871Z,98746.06
2019-01-06T10:46:33.335Z,98735.85
2019-01-06T10:49:16.495Z,98740.41
2019-01-06T10:52:06.394Z,98738.48
2019-01-06T10:55:09.012Z,98751.49
2019-01-06T10:58:00.154Z,98753.66
2019-01-06T11:01:00.650Z,98712.70
2019-01-06T11:03:49.770Z,98752.66
2019-01-06T11:06:42.836Z,98740.55
2019-01-06T11:09:31.831Z,98767.39
2019-01-06T11:12:21.808Z,98740.41
2019-01-06T11:15:10.725Z,98740.16
2019-01-06T11:18:15.818Z,98747.92
2019-01-06T11:21:05.742Z,98756.84
2019-01-06T11:24:04.944Z,98777.12
2019-01-06T11:26:53.703Z,98748.48
2019-01-06T11:29:44.418Z,98777.67
2019-01-06T11:32:33.457Z,98780.92
2019-01-06T11:35:38.829Z,98779.02
2019-01-06T11:38:48.659Z,98791.84
2019-01-06T11:41:37.642Z,98794.44
2019-01-06T11:44:26.540Z,98781.34
2019-01-06T11:47:15.257Z,98798.48
2019-01-06T11:49:57.005Z,98792.20
2019-01-06T11:52:45.983Z,98785.66
2019-01-06T11:55:33.745Z,98810.66
2019-01-06T11:58:24.221Z,98800.41
2019-01-06T12:01:14.176Z,98815.19
2019-01-06T12:04:07.346Z,98822.84
2019-01-06T12:07:03.775Z,98818.47
2019-01-06T12:10:00.045Z,98838.22
2019-01-06T12:12:53.423Z,98809.04
2019-01-06T12:15:42.730Z,98825.27
2019-01-06T12:18:38.784Z,98846.22
2019-01-06T12:21:27.802Z,98810.31
2019-01-06T12:24:21.148Z,98842.50
2019-01-06T12:27:17.850Z,98819.06
2019-01-06T12:30:17.105Z,98839.25
2019-01-06T12:33:06.663Z,98842.65
2019-01-06T12:35:55.565Z,98840.84
2019-01-06T12:38:47.291Z,98844.88
2019-01-06T12:41:36.308Z,98852.41
2019-01-06T12:44:32.535Z,98850.58
2019-01-06T12:47:39.735Z,98847.00
2019-01-06T12:50:29.897Z,98856.05
2019-01-06T12:53:19.140Z,98862.64
2019-01-06T12:56:12.167Z,98848.52
2019-01-06T12:59:11.530Z,98878.79
2019-01-06T13:02:04.779Z,98876.57
2019-01-06T13:04:57.633Z,98873.23
2019-01-06T13:07:57.119Z,98864.89
2019-01-06T13:10:48.009Z,98876.57
2019-01-06T13:13:37.333Z,98879.48
2019-01-06T13:16:40.591Z,98887.15
2019-01-06T13:19:31.536Z,98896.83
2019-01-06T13:22:27.497Z,98898.52
2019-01-06T13:25:26.760Z,98901.97
2019-01-06T13:28:22.927Z,98911.70
2019-01-06T13:31:03.311Z,98907.86
2019-01-06T13:34:11.875Z,98878.67
2019-01-06T13:37:17.423Z,98922.40
2019-01-06T13:40:05.984Z,98923.41
2019-01-06T13:42:55.474Z,98920.98
2019-01-06T13:45:53.706Z,98929.33
2019-01-06T13:48:49.986Z,98938.05
2019-01-06T13:51:43.222Z,98934.89
2019-01-06T13:54:37.439Z,98947.63
2019-01-06T13:57:27.852Z,98945.83
2019-01-06T14:00:21.304Z,98946.94
2019-01-06T14:03:11.578Z,98949.00
2019-01-06T14:06:01.972Z,98956.09
2019-01-06T14:08:52.003Z,98953.70
2019-01-06T14:11:45.081Z,98959.00
2019-01-06T14:14:53.518Z,98956.25
2019-01-06T14:17:42.493Z,98961.20
2019-01-06T14:20:43.580Z,98954.59
2019-01-06T14:23:33.631Z,98962.05
2019-01-06T14:26:23.501Z,98974.64
2019-01-06T14:29:23.153Z,98973.80
2019-01-06T14:32:11.709Z,98961.85
2019-01-06T14:35:01.859Z,98976.28
2019-01-06T14:37:50.740Z,98979.06
2019-01-06T14:40:43.984Z,98995.23
2019-01-06T14:43:50.752Z,99001.80
2019-01-06T14:46:49.801Z,98991.78
2019-01-06T14:49:43.193Z,98997.23
2019-01-06T14:52:34.052Z,99008.31
2019-01-06T14:55:28.783Z,99007.53
2019-01-06T14:58:19.175Z,99009.41
2019-01-06T15:01:10.714Z,99019.73
2019-01-06T15:03:59.630Z,99027.41
2019-01-06T15:06:48.415Z,99020.66
2019-01-06T15:09:37.412Z,99036.11
2019-01-06T15:12:21.400Z,99017.23
2019-01-06T15:15:23.603Z,99036.17
2019-01-06T15:18:21.042Z,99035.95
2019-01-06T15:21:09.904Z,99045.36
2019-01-06T15:24:18.570Z,99051.55
2019-01-06T15:27:11.069Z,99062.64
2019-01-06T15:30:00.335Z,99053.29
2019-01-06T15:32:49.313Z,99073.83
2019-01-06T15:35:39.839Z,99073.97
2019-01-06T15:38:30.279Z,99063.70
2019-01-06T15:41:24.842Z,99083.16
2019-01-06T15:44:13.750Z,99085.17
2019-01-06T15:47:03.932Z,99083.38
2019-01-06T15:50:12.361Z,99090.75
2019-01-06T15:53:01.832Z,99092.83
2019-01-06T15:55:50.724Z,99092.53
2019-01-06T15:58:53.047Z,99095.68
2019-01-06T16:01:43.250Z,99091.39
2019-01-06T16:04:43.480Z,99105.59
2019-01-06T16:07:52.280Z,99109.91
2019-01-06T16:10:41.948Z,99115.27
2019-01-06T16:13:32.479Z,99112.61
2019-01-06T16:16:26.606Z,99115.38
2019-01-06T16:19:23.733Z,99121.61
2019-01-06T16:22:19.887Z,99117.54
2019-01-06T16:25:08.736Z,99127.36
2019-01-06T16:27:57.860Z,99123.92
2019-01-06T16:30:46.962Z,99130.77
2019-01-06T16:33:36.428Z,99136.61
2019-01-06T16:36:29.377Z,99140.48
2019-01-06T16:39:18.104Z,99134.97
2019-01-06T16:42:20.244Z,99141.09
2019-01-06T16:45:11.655Z,99145.73
2019-01-06T16:48:09.952Z,99158.08
2019-01-06T16:50:52.599Z,99155.45
2019-01-06T16:53:43.099Z,99160.89
2019-01-06T16:56:34.166Z,99170.91
2019-01-06T16:59:43.436Z,99165.94
2019-01-06T17:02:45.093Z,99173.38
2019-01-06T17:05:30.649Z,99194.38
2019-01-06T17:08:36.043Z,99187.91
2019-01-06T17:11:35.149Z,99192.63
2019-01-06T17:14:25.256Z,99190.70
2019-01-06T17:17:30.966Z,99204.02
2019-01-06T17:20:24.422Z,99197.58
2019-01-06T17:23:21.466Z,99205.23
2019-01-06T17:26:28.339Z,99200.80
2019-01-06T17:29:17.001Z,99195.66
2019-01-06T17:32:10.566Z,99205.47
2019-01-06T17:34:59.453Z,99207.39
2019-01-06T17:37:51.291Z,99213.89
2019-01-06T17:40:36.790Z,99201.03
2019-01-06T17:43:38.895Z,99207.05
2019-01-06T17:46:28.913Z,99209.80
2019-01-06T17:49:22.348Z,99207.15
2019-01-06T17:52:12.345Z,99213.03
2019-01-06T17:55:10.899Z,99210.63
2019-01-06T17:58:02.428Z,99215.44
2019-01-06T18:01:01.613Z,99223.11
2019-01-06T18:03:50.571Z,99219.73
2019-01-06T18:06:43.988Z,99223.47
2019-01-06T18:09:34.066Z,99223.23
2019-01-06T18:12:28.421Z,99222.64
2019-01-06T18:15:30.052Z,99215.45
2019-01-06T18:18:22.384Z,99221.80
2019-01-06T18:21:18.220Z,99227.42
2019-01-06T18:24:26.905Z,99222.52
2019-01-06T18:27:15.475Z,99229.95
2019-01-06T18:30:04.335Z,99239.53
2019-01-06T18:32:46.257Z,99241.47
2019-01-06T18:35:35.312Z,99244.34
2019-01-06T18:38:23.964Z,99247.11
2019-01-06T18:41:12.664Z,99254.56
2019-01-06T18:44:01.666Z,99249.14
2019-01-06T18:46:58.041Z,99258.38
2019-01-06T18:49:48.270Z,99259.84
2019-01-06T18:52:45.453Z,99260.41
2019-01-06T18:55:33.796Z,99258.85
2019-01-06T18:58:24.976Z,99266.91
2019-01-06T19:01:14.466Z,99264.38
2019-01-06T19:04:04.506Z,99264.38
2019-01-06T19:07:08.199Z,99264.98
2019-01-06T19:09:57.213Z,99266.20
2019-01-06T19:13:02.764Z,99268.47
2019-01-06T19:15:51.110Z,99281.30
2019-01-06T19:18:40.585Z,99281.30
2019-01-06T19:21:29.478Z,99282.75
2019-01-06T19:24:19.643Z,99278.18
2019-01-06T19:27:27.824Z,99282.14
2019-01-06T19:30:16.796Z,99274.12
2019-01-06T19:33:06.889Z,99277.94
2019-01-06T19:35:50.272Z,99280.34
2019-01-06T19:38:43.662Z,99287.31
2019-01-06T19:41:32.826Z,99293.30
2019-01-06T19:44:21.567Z,99291.28
2019-01-06T19:47:11.221Z,99292.83
2019-01-06T19:50:01.363Z,99297.27
2019-01-06T19:52:50.470Z,99303.39
2019-01-06T19:55:49.516Z,99298.83
2019-01-06T19:58:38.890Z,99303.86
2019-01-06T20:01:21.301Z,99294.73
2019-01-06T20:04:11.019Z,99302.78
2019-01-06T20:07:19.463Z,99303.16
2019-01-06T20:10:27.711Z,99312.87
2019-01-06T20:13:30.108Z,99316.36
2019-01-06T20:16:19.237Z,99312.87
2019-01-06T20:19:12.435Z,99305.05
2019-01-06T20:22:11.847Z,99312.25
2019-01-06T20:25:17.502Z,99303.97
2019-01-06T20:28:13.739Z,99305.42
2019-01-06T20:31:09.091Z,99308.77
2019-01-06T20:34:12.268Z,99315.84
2019-01-06T20:37:21.422Z,99316.92
2019-01-06T20:40:10.141Z,99302.64
2019-01-06T20:43:03.206Z,99320.27
2019-01-06T20:45:53.306Z,99328.69
2019-01-06T20:48:52.536Z,99321.63
2019-01-06T20:51:48.583Z,99322.91
2019-01-06T20:54:37.367Z,99325.68
2019-01-06T20:57:27.465Z,99318.00
2019-01-06T21:00:36.124Z,99330.95
2019-01-06T21:03:25.282Z,99326.52
2019-01-06T21:06:14.020Z,99328.55
2019-01-06T21:09:16.192Z,99333.45
2019-01-06T21:12:16.129Z,99331.33
2019-01-06T21:15:05.319Z,99343.30
2019-01-06T21:17:55.710Z,99344.24
2019-01-06T21:20:49.292Z,99344.24
2019-01-06T21:23:38.092Z,99347.02
2019-01-06T21:26:26.800Z,99345.55
2019-01-06T21:29:23.123Z,99346.55
2019-01-06T21:32:28.909Z,99351.11
2019-01-06T21:35:19.193Z,99343.53
2019-01-06T21:38:12.392Z,99335.38
2019-01-06T21:41:02.506Z,99348.09
2019-01-06T21:43:52.016Z,99347.00
2019-01-06T21:46:47.773Z,99349.39
2019-01-06T21:49:37.147Z,99353.97
2019-01-06T21:52:29.863Z,99362.81
2019-01-06T21:55:19.346Z,99360.16
2019-01-06T21:58:08.353Z,99363.29
2019-01-06T22:01:03.914Z,99366.16
2019-01-06T22:04:02.822Z,99375.52
2019-01-06T22:07:05.399Z,99368.92
2019-01-06T22:10:07.735Z,99364.22
2019-01-06T22:12:59.049Z,99364.45
2019-01-06T22:16:02.097Z,99368.30
2019-01-06T22:19:10.402Z,99369.13
2019-01-06T22:21:59.047Z,99369.00
2019-01-06T22:24:48.260Z,99372.96
2019-01-06T22:27:38.159Z,99376.75
2019-01-06T22:30:28.263Z,99369.81
2019-01-06T22:33:30.441Z,99366.55
2019-01-06T22:36:19.957Z,99361.48
2019-01-06T22:39:20.876Z,99359.06
2019-01-06T22:42:17.784Z,99359.44
2019-01-06T22:45:07.874Z,99369.12
2019-01-06T22:48:03.861Z,99375.23
2019-01-06T22:50:52.819Z,99379.44
2019-01-06T22:53:41.787Z,99368.89
2019-01-06T22:56:31.124Z,99366.80
2019-01-06T22:59:22.066Z,99369.44
2019-01-06T23:02:11.187Z,99371.00
2019-01-06T23:05:10.465Z,99371.13
2019-01-06T23:08:00.953Z,99362.03
2019-01-06T23:11:04.807Z,99377.31
2019-01-06T23:13:54.825Z,99370.01
2019-01-06T23:16:44.216Z,99381.62
2019-01-06T23:19:51.942Z,99376.34
2019-01-06T23:22:41.190Z,99390.94
2019-01-06T23:25:46.273Z,99387.42
2019-01-06T23:28:36.540Z,99397.58
2019-01-06T23:31:26.957Z,99402.25
2019-01-06T23:34:06.759Z,99393.50
2019-01-06T23:36:55.476Z,99399.52
2019-01-06T23:39:54.714Z,99400.77
2019-01-06T23:42:43.514Z,99401.98
2019-01-06T23:45:32.760Z,99404.33
2019-01-06T23:48:33.541Z,99414.27
2019-01-06T23:51:23.045Z,99410.96
2019-01-06T23:54:13.360Z,99427.61
2019-01-06T23:57:06.699Z,99419.30
